Bakerville, South Dakota
Current Conditions -  °F | °C
As of 4:53 AM on Monday 24 Nov 2014 (Local Time) from KCUT Reporting Station
Clear Clear  
Wind Chill: 16°   Ceiling: Unl
Heat Index: 25°   Visibility: 10mi
Dew Point: 13°   Wind: 9mph
Humidity: 60%   Direction: 300°WNW
Pressure: 29.69"   Gusts: NA
Location:  43.6653°N, 103.766°W
Report Text: KCUT 241153Z AUTO 30008KT 10SM CLR M04/M11 A2969 RMK AO2 SLP088 T10391106 11028 21039 51005
Loading
Personal Weather Stations






























Interactive Weather Map New forecast layout! Learn more

10-Day Weather Forecast

Advertisements
Track Severe Weather on mobile